createdAt,value
2022-08-03T00:00:28.831Z,72.06
2022-08-03T00:02:55.959Z,72.07
2022-08-03T00:05:23.024Z,72.38
2022-08-03T00:07:49.901Z,72.14
2022-08-03T00:10:17.335Z,72.36
2022-08-03T00:12:44.290Z,72.29
2022-08-03T00:15:16.663Z,72.55
2022-08-03T00:17:52.676Z,72.48
2022-08-03T00:20:21.994Z,72.35
2022-08-03T00:22:49.887Z,72.31
2022-08-03T00:25:17.220Z,72.62
2022-08-03T00:27:44.262Z,72.40
2022-08-03T00:30:11.568Z,72.35
2022-08-03T00:32:38.751Z,72.69
2022-08-03T00:35:35.124Z,72.70
2022-08-03T00:37:59.646Z,72.72
2022-08-03T00:40:26.982Z,72.86
2022-08-03T00:43:05.979Z,72.82
2022-08-03T00:45:40.843Z,72.59
2022-08-03T00:48:19.743Z,72.53
2022-08-03T00:50:56.450Z,72.72
2022-08-03T00:53:23.500Z,72.65
2022-08-03T00:55:50.401Z,72.92
2022-08-03T00:58:17.472Z,72.84
2022-08-03T01:00:44.516Z,72.60
2022-08-03T01:03:12.202Z,72.77
2022-08-03T01:05:58.727Z,72.76
2022-08-03T01:08:26.259Z,72.87
2022-08-03T01:11:11.596Z,73.01
2022-08-03T01:14:01.557Z,72.72
2022-08-03T01:16:45.299Z,73.00
2022-08-03T01:19:43.262Z,72.81
2022-08-03T01:22:28.976Z,72.62
2022-08-03T01:25:29.081Z,72.85
2022-08-03T01:28:26.059Z,72.82
2022-08-03T01:30:57.171Z,72.76
2022-08-03T01:33:35.500Z,72.84
2022-08-03T01:36:05.250Z,73.08
2022-08-03T01:38:57.104Z,72.61
2022-08-03T01:41:39.483Z,72.59
2022-08-03T01:44:29.665Z,72.73
2022-08-03T01:46:59.100Z,72.54
2022-08-03T01:49:27.258Z,72.68
2022-08-03T01:52:03.033Z,72.82
2022-08-03T01:54:37.361Z,73.14
2022-08-03T01:57:04.633Z,73.03
2022-08-03T01:59:32.841Z,73.03
2022-08-03T02:02:28.516Z,73.02
2022-08-03T02:04:47.696Z,72.81
2022-08-03T02:07:15.751Z,72.90
2022-08-03T02:09:45.169Z,72.74
2022-08-03T02:12:12.558Z,73.24
2022-08-03T02:14:41.409Z,72.96
2022-08-03T02:17:09.558Z,72.96
2022-08-03T02:19:37.219Z,73.14
2022-08-03T02:22:05.376Z,73.24
2022-08-03T02:24:32.342Z,73.07
2022-08-03T02:27:00.548Z,72.92
2022-08-03T02:29:39.846Z,72.98
2022-08-03T02:32:14.479Z,73.31
2022-08-03T02:34:46.051Z,72.99
2022-08-03T02:37:13.698Z,73.19
2022-08-03T02:39:43.009Z,73.12
2022-08-03T02:42:13.062Z,73.19
2022-08-03T02:44:41.601Z,72.96
2022-08-03T02:47:10.619Z,73.06
2022-08-03T02:49:51.693Z,73.02
2022-08-03T02:52:24.020Z,73.25
2022-08-03T02:54:57.583Z,73.21
2022-08-03T02:57:27.365Z,73.21
2022-08-03T02:59:55.573Z,73.00
2022-08-03T03:02:22.797Z,73.25
2022-08-03T03:05:51.764Z,73.02
2022-08-03T03:07:51.707Z,73.14
2022-08-03T03:10:23.949Z,72.88
2022-08-03T03:12:53.288Z,72.98
2022-08-03T03:15:20.496Z,72.89
2022-08-03T03:17:49.788Z,73.05
2022-08-03T03:20:29.155Z,72.85
2022-08-03T03:22:59.363Z,73.06
2022-08-03T03:25:26.442Z,72.86
2022-08-03T03:27:54.308Z,73.00
2022-08-03T03:30:21.785Z,73.18
2022-08-03T03:32:49.169Z,72.81
2022-08-03T03:35:16.724Z,73.32
2022-08-03T03:37:43.708Z,73.16
2022-08-03T03:40:11.487Z,72.95
2022-08-03T03:42:38.573Z,72.89
2022-08-03T03:45:07.201Z,72.81
2022-08-03T03:47:35.648Z,72.80
2022-08-03T03:50:04.620Z,72.79
2022-08-03T03:52:33.125Z,72.92
2022-08-03T03:55:01.309Z,72.66
2022-08-03T03:57:29.315Z,72.54
2022-08-03T03:59:56.881Z,72.54
2022-08-03T04:02:23.968Z,72.56
2022-08-03T04:05:09.317Z,72.25
2022-08-03T04:08:24.641Z,72.47
2022-08-03T04:11:29.134Z,72.11
2022-08-03T04:14:16.335Z,71.91
2022-08-03T04:16:47.688Z,71.89
2022-08-03T04:19:28.947Z,71.75
2022-08-03T04:22:00.740Z,71.72
2022-08-03T04:24:34.971Z,71.68
2022-08-03T04:27:03.609Z,71.55
2022-08-03T04:29:33.727Z,71.34
2022-08-03T04:32:01.123Z,71.10
2022-08-03T04:34:30.735Z,70.67
2022-08-03T04:37:00.468Z,70.14
2022-08-03T04:39:30.562Z,69.62
2022-08-03T04:42:07.534Z,69.35
2022-08-03T04:44:45.253Z,69.07
2022-08-03T04:47:12.301Z,68.75
2022-08-03T04:49:39.779Z,68.58
2022-08-03T04:52:08.820Z,68.66
2022-08-03T04:54:45.923Z,68.50
2022-08-03T04:57:22.310Z,68.38
2022-08-03T05:00:02.098Z,68.36
2022-08-03T05:02:31.494Z,68.21
2022-08-03T05:04:58.987Z,68.14
2022-08-03T05:07:25.906Z,68.07
2022-08-03T05:10:01.844Z,67.97
2022-08-03T05:12:32.747Z,67.70
2022-08-03T05:15:00.609Z,67.53
2022-08-03T05:17:28.543Z,67.33
2022-08-03T05:19:55.844Z,67.13
2022-08-03T05:22:23.242Z,66.88
2022-08-03T05:24:50.583Z,66.56
2022-08-03T05:27:19.428Z,66.41
2022-08-03T05:29:47.571Z,66.36
2022-08-03T05:32:15.458Z,65.90
2022-08-03T05:34:42.448Z,65.50
2022-08-03T05:37:10.026Z,65.33
2022-08-03T05:39:38.019Z,64.94
2022-08-03T05:42:05.105Z,64.51
2022-08-03T05:44:32.256Z,64.25
2022-08-03T05:46:59.841Z,63.78
2022-08-03T05:49:26.827Z,63.50
2022-08-03T05:51:59.811Z,63.04
2022-08-03T05:54:55.572Z,62.92
2022-08-03T05:57:23.566Z,62.16
2022-08-03T05:59:53.922Z,61.51
2022-08-03T06:02:26.039Z,61.00
2022-08-03T06:04:52.998Z,60.31
2022-08-03T06:07:20.152Z,59.84
2022-08-03T06:10:34.186Z,59.50
2022-08-03T06:12:37.343Z,58.62
2022-08-03T06:15:05.185Z,58.11
2022-08-03T06:17:37.107Z,57.72
2022-08-03T06:20:06.216Z,57.05
2022-08-03T06:22:33.421Z,56.57
2022-08-03T06:25:04.816Z,56.17
2022-08-03T06:27:37.155Z,55.64
2022-08-03T06:30:05.395Z,55.09
2022-08-03T06:32:32.464Z,54.72
2022-08-03T06:35:00.142Z,54.20
2022-08-03T06:37:27.292Z,53.62
2022-08-03T06:39:54.635Z,53.31
2022-08-03T06:42:22.678Z,52.92
2022-08-03T06:44:50.000Z,52.49
2022-08-03T06:47:17.322Z,51.89
2022-08-03T06:49:44.512Z,51.36
2022-08-03T06:52:37.716Z,50.66
2022-08-03T06:55:07.059Z,50.14
2022-08-03T06:57:34.057Z,49.98
2022-08-03T07:00:09.903Z,49.21
2022-08-03T07:02:39.952Z,48.83
2022-08-03T07:05:08.452Z,48.23
2022-08-03T07:07:35.608Z,47.28
2022-08-03T07:10:03.486Z,47.06
2022-08-03T07:12:31.047Z,46.70
2022-08-03T07:15:01.689Z,45.84
2022-08-03T07:17:30.989Z,45.37
2022-08-03T07:19:58.851Z,44.45
2022-08-03T07:22:26.077Z,44.17
2022-08-03T07:24:53.229Z,43.65
2022-08-03T07:27:20.427Z,43.10
2022-08-03T07:29:47.475Z,42.65
2022-08-03T07:32:14.688Z,42.22
2022-08-03T07:34:41.959Z,41.81
2022-08-03T07:37:09.018Z,41.15
2022-08-03T07:39:36.047Z,40.58
2022-08-03T07:42:03.310Z,40.12
2022-08-03T07:44:30.238Z,39.85
2022-08-03T07:46:57.853Z,39.83
2022-08-03T07:49:25.260Z,39.26
2022-08-03T07:52:12.172Z,38.87
2022-08-03T07:54:39.217Z,38.68
2022-08-03T07:57:06.342Z,38.02
2022-08-03T07:59:56.838Z,37.78
2022-08-03T08:02:22.290Z,37.22
2022-08-03T08:04:49.179Z,37.27
2022-08-03T08:07:16.259Z,37.01
2022-08-03T08:09:45.367Z,36.46
2022-08-03T08:12:15.574Z,36.12
2022-08-03T08:14:45.784Z,36.35
2022-08-03T08:17:13.537Z,35.85
2022-08-03T08:19:44.577Z,35.86
2022-08-03T08:22:30.216Z,35.58
2022-08-03T08:25:01.663Z,35.13
2022-08-03T08:28:30.619Z,35.21
2022-08-03T08:30:19.670Z,34.80
2022-08-03T08:32:47.207Z,34.54
2022-08-03T08:35:14.356Z,34.51
2022-08-03T08:37:41.695Z,34.32
2022-08-03T08:40:09.777Z,34.63
2022-08-03T08:42:51.902Z,34.03
2022-08-03T08:45:24.931Z,33.87
2022-08-03T08:47:54.724Z,33.83
2022-08-03T08:50:27.708Z,33.87
2022-08-03T08:52:55.477Z,33.89
2022-08-03T08:55:23.528Z,34.21
2022-08-03T08:57:59.283Z,33.83
2022-08-03T09:00:26.376Z,33.79
2022-08-03T09:02:53.447Z,33.57
2022-08-03T09:05:35.759Z,33.59
2022-08-03T09:08:08.366Z,33.54
2022-08-03T09:10:35.472Z,33.49
2022-08-03T09:13:02.516Z,33.84
2022-08-03T09:15:31.772Z,33.44
2022-08-03T09:18:01.507Z,33.63
2022-08-03T09:20:31.546Z,33.12
2022-08-03T09:23:26.293Z,33.34
2022-08-03T09:26:01.624Z,33.03
2022-08-03T09:28:58.051Z,33.00
2022-08-03T09:31:41.390Z,33.41
2022-08-03T09:34:16.360Z,33.05
2022-08-03T09:36:48.253Z,32.98
2022-08-03T09:39:17.312Z,32.89
2022-08-03T09:41:47.052Z,33.00
2022-08-03T09:44:25.296Z,32.94
2022-08-03T09:46:55.758Z,33.33
2022-08-03T09:49:23.270Z,33.18
2022-08-03T09:52:32.823Z,32.80
2022-08-03T09:54:37.526Z,32.93
2022-08-03T09:57:04.597Z,33.04
2022-08-03T09:59:33.477Z,32.62
2022-08-03T10:02:01.981Z,33.01
2022-08-03T10:04:29.163Z,32.97
2022-08-03T10:07:08.465Z,32.52
2022-08-03T10:09:36.264Z,32.58
2022-08-03T10:12:13.389Z,32.61
2022-08-03T10:14:45.822Z,32.15
2022-08-03T10:17:13.193Z,32.39
2022-08-03T10:19:41.368Z,32.41
2022-08-03T10:22:16.704Z,32.11
2022-08-03T10:24:52.276Z,32.34
2022-08-03T10:27:20.780Z,32.20
2022-08-03T10:29:52.360Z,32.18
2022-08-03T10:32:23.187Z,32.04
2022-08-03T10:34:52.113Z,31.74
2022-08-03T10:37:31.036Z,32.14
2022-08-03T10:39:58.787Z,32.12
2022-08-03T10:42:27.346Z,31.88
2022-08-03T10:45:06.279Z,31.79
2022-08-03T10:47:34.585Z,32.03
2022-08-03T10:50:02.386Z,31.52
2022-08-03T10:52:32.823Z,31.97
2022-08-03T10:55:56.122Z,31.71
2022-08-03T10:58:56.891Z,31.74
2022-08-03T11:01:58.953Z,31.77
2022-08-03T11:04:30.204Z,31.53
2022-08-03T11:07:16.469Z,31.58
2022-08-03T11:09:56.878Z,31.32
2022-08-03T11:12:31.155Z,31.11
2022-08-03T11:15:05.346Z,31.42
2022-08-03T11:17:33.871Z,31.04
2022-08-03T11:20:14.097Z,30.98
2022-08-03T11:22:54.594Z,31.07
2022-08-03T11:25:54.366Z,31.17
2022-08-03T11:28:41.849Z,30.89
2022-08-03T11:31:48.875Z,31.25
2022-08-03T11:34:16.057Z,31.35
2022-08-03T11:37:21.798Z,31.45
2022-08-03T11:39:51.486Z,30.91
2022-08-03T11:42:25.045Z,30.73
2022-08-03T11:44:56.039Z,30.38
2022-08-03T11:47:24.484Z,30.29
2022-08-03T11:49:52.916Z,30.32
2022-08-03T11:52:26.922Z,30.20
2022-08-03T11:54:56.743Z,29.86
2022-08-03T11:59:16.499Z,29.88
2022-08-03T12:00:29.977Z,29.49
2022-08-03T12:03:04.136Z,29.61
2022-08-03T12:05:52.655Z,29.47
2022-08-03T12:08:32.552Z,29.38
2022-08-03T12:11:01.719Z,29.30
2022-08-03T12:14:44.358Z,29.44
2022-08-03T12:16:28.902Z,29.07
2022-08-03T12:19:03.836Z,29.45
2022-08-03T12:21:31.264Z,29.38
2022-08-03T12:24:01.499Z,29.08
2022-08-03T12:26:30.056Z,29.02
2022-08-03T12:28:58.360Z,29.24
2022-08-03T12:31:28.575Z,28.97
2022-08-03T12:33:59.581Z,29.03
2022-08-03T12:36:27.499Z,28.69
2022-08-03T12:38:59.181Z,29.04
2022-08-03T12:41:35.419Z,28.91
2022-08-03T12:44:07.287Z,28.66
2022-08-03T12:46:37.386Z,28.72
2022-08-03T12:49:04.600Z,28.56
2022-08-03T12:51:34.457Z,28.47
2022-08-03T12:54:01.984Z,28.24
2022-08-03T12:56:29.316Z,28.41
2022-08-03T12:58:57.037Z,28.14
2022-08-03T13:01:25.265Z,28.03
2022-08-03T13:03:54.045Z,27.79
2022-08-03T13:06:25.967Z,27.72
2022-08-03T13:09:07.601Z,27.71
2022-08-03T13:11:55.781Z,27.64
2022-08-03T13:14:23.779Z,27.56
2022-08-03T13:16:52.452Z,27.39
2022-08-03T13:19:19.799Z,27.35
2022-08-03T13:22:01.953Z,27.49
2022-08-03T13:24:32.787Z,27.23
2022-08-03T13:27:00.611Z,27.18
2022-08-03T13:29:47.769Z,27.16
2022-08-03T13:32:14.807Z,26.91
2022-08-03T13:34:41.864Z,27.02
2022-08-03T13:37:09.986Z,26.78
2022-08-03T13:39:57.865Z,26.84
2022-08-03T13:42:25.270Z,26.54
2022-08-03T13:44:52.486Z,26.46
2022-08-03T13:47:20.561Z,26.55
2022-08-03T13:50:00.002Z,26.47
2022-08-03T13:52:38.187Z,26.30
2022-08-03T13:55:07.008Z,26.19
2022-08-03T13:58:03.676Z,26.05
2022-08-03T14:00:29.206Z,25.75
2022-08-03T14:03:05.323Z,25.71
2022-08-03T14:05:36.000Z,25.53
2022-08-03T14:08:05.339Z,25.63
2022-08-03T14:10:34.639Z,25.67
2022-08-03T14:13:02.009Z,25.35
2022-08-03T14:15:29.382Z,25.35
2022-08-03T14:17:58.698Z,25.45
2022-08-03T14:20:36.844Z,25.42
2022-08-03T14:23:07.262Z,25.36
2022-08-03T14:25:44.434Z,25.38
2022-08-03T14:28:21.360Z,25.37
2022-08-03T14:30:48.749Z,25.29
2022-08-03T14:33:16.226Z,25.46
2022-08-03T14:35:43.609Z,25.36
2022-08-03T14:38:10.844Z,25.33
2022-08-03T14:40:37.901Z,25.21
2022-08-03T14:43:05.036Z,25.35
2022-08-03T14:45:32.547Z,25.06
2022-08-03T14:50:34.938Z,25.13
2022-08-03T14:50:51.339Z,25.55
2022-08-03T14:53:19.348Z,25.29
2022-08-03T14:55:50.375Z,25.11
2022-08-03T14:58:20.972Z,25.22
2022-08-03T15:00:50.608Z,25.31
2022-08-03T15:03:21.781Z,25.09
2022-08-03T15:05:49.143Z,25.33
2022-08-03T15:08:16.518Z,25.53
2022-08-03T15:10:44.412Z,25.36
2022-08-03T15:13:13.424Z,25.19
2022-08-03T15:15:41.138Z,25.02
2022-08-03T15:18:08.487Z,25.40
2022-08-03T15:20:51.084Z,25.69
2022-08-03T15:23:19.139Z,25.32
2022-08-03T15:26:29.553Z,25.71
2022-08-03T15:28:34.430Z,25.55
2022-08-03T15:31:05.559Z,25.59
2022-08-03T15:33:32.870Z,26.13
2022-08-03T15:36:02.695Z,25.92
2022-08-03T15:38:29.678Z,26.08
2022-08-03T15:40:57.016Z,25.75
2022-08-03T15:43:24.392Z,26.13
2022-08-03T15:46:19.037Z,26.06
2022-08-03T15:48:39.285Z,26.26
2022-08-03T15:51:06.920Z,26.22
2022-08-03T15:53:34.866Z,26.12
2022-08-03T15:56:09.378Z,26.25
2022-08-03T15:59:10.238Z,26.61
2022-08-03T16:01:26.950Z,26.61
2022-08-03T16:03:54.208Z,26.82
2022-08-03T16:06:29.430Z,26.95
2022-08-03T16:09:01.522Z,27.08
2022-08-03T16:11:28.652Z,27.12
2022-08-03T16:14:13.002Z,26.69
2022-08-03T16:16:42.618Z,26.98
2022-08-03T16:19:09.769Z,27.18
2022-08-03T16:21:38.595Z,27.09
2022-08-03T16:24:17.520Z,27.68
2022-08-03T16:26:52.834Z,27.32
2022-08-03T16:29:22.392Z,27.45
2022-08-03T16:31:51.670Z,27.63
2022-08-03T16:34:19.068Z,28.08
2022-08-03T16:36:46.095Z,28.15
2022-08-03T16:39:13.110Z,28.19
2022-08-03T16:41:53.762Z,28.34
2022-08-03T16:44:28.747Z,28.76
2022-08-03T16:46:55.746Z,28.70
2022-08-03T16:49:54.297Z,28.90
2022-08-03T16:52:09.800Z,29.08
2022-08-03T16:54:40.129Z,29.00
2022-08-03T16:57:08.616Z,29.28
2022-08-03T16:59:37.069Z,29.17
2022-08-03T17:02:09.941Z,29.39
2022-08-03T17:04:40.217Z,29.45
2022-08-03T17:07:08.894Z,29.78
2022-08-03T17:09:38.477Z,29.65
2022-08-03T17:12:06.372Z,29.84
2022-08-03T17:14:34.250Z,30.05
2022-08-03T17:17:04.225Z,30.00
2022-08-03T17:19:32.769Z,30.26
2022-08-03T17:22:18.628Z,30.20
2022-08-03T17:24:54.835Z,30.50
2022-08-03T17:28:49.290Z,30.53
2022-08-03T17:30:18.971Z,30.45
2022-08-03T17:32:56.654Z,30.74
2022-08-03T17:35:36.471Z,30.74
2022-08-03T17:38:10.456Z,30.90
2022-08-03T17:40:47.965Z,31.13
2022-08-03T17:44:12.720Z,31.06
2022-08-03T17:46:07.139Z,31.15
2022-08-03T17:48:34.416Z,31.52
2022-08-03T17:51:33.109Z,31.51
2022-08-03T17:54:03.178Z,31.77
2022-08-03T17:56:48.672Z,32.09
2022-08-03T17:59:50.930Z,31.85
2022-08-03T18:03:03.437Z,32.38
2022-08-03T18:08:29.792Z,32.58
2022-08-03T18:11:03.540Z,32.71
2022-08-03T18:13:43.500Z,33.06
2022-08-03T18:16:28.545Z,33.38
2022-08-03T18:18:57.221Z,33.39
2022-08-03T18:21:28.125Z,33.30
2022-08-03T18:24:15.809Z,33.85
2022-08-03T18:26:43.294Z,34.08
2022-08-03T18:29:16.176Z,34.38
2022-08-03T18:32:02.646Z,34.66
2022-08-03T18:34:34.237Z,35.21
2022-08-03T18:37:07.533Z,35.30
2022-08-03T18:39:49.353Z,35.88
2022-08-03T18:42:19.226Z,36.11
2022-08-03T18:44:53.803Z,36.60
2022-08-03T18:47:50.786Z,36.77
2022-08-03T18:50:36.741Z,37.39
2022-08-03T18:53:16.408Z,37.74
2022-08-03T18:55:59.384Z,37.95
2022-08-03T18:58:35.742Z,38.31
2022-08-03T19:01:15.417Z,38.61
2022-08-03T19:04:44.259Z,39.19
2022-08-03T19:07:16.132Z,39.46
2022-08-03T19:09:54.609Z,40.09
2022-08-03T19:12:37.399Z,40.47
2022-08-03T19:15:10.363Z,41.14
2022-08-03T19:17:50.362Z,41.83
2022-08-03T19:20:22.650Z,42.00
2022-08-03T19:22:56.190Z,42.80
2022-08-03T19:25:35.124Z,43.15
2022-08-03T19:28:06.329Z,43.50
2022-08-03T19:30:40.326Z,43.73
2022-08-03T19:33:13.810Z,44.37
2022-08-03T19:35:55.532Z,44.56
2022-08-03T19:38:28.802Z,44.88
2022-08-03T19:40:59.709Z,45.10
2022-08-03T19:43:32.960Z,45.52
2022-08-03T19:46:06.255Z,45.92
2022-08-03T19:48:34.662Z,46.00
2022-08-03T19:51:04.616Z,46.50
2022-08-03T19:53:43.188Z,46.72
2022-08-03T19:56:14.381Z,46.99
2022-08-03T19:58:43.267Z,47.30
2022-08-03T20:01:19.398Z,47.55
2022-08-03T20:03:50.139Z,48.02
2022-08-03T20:06:18.104Z,48.12
2022-08-03T20:08:51.583Z,48.55
2022-08-03T20:11:20.542Z,48.81
2022-08-03T20:13:58.477Z,49.39
2022-08-03T20:16:26.516Z,49.57
2022-08-03T20:18:56.045Z,50.03
2022-08-03T20:21:24.986Z,49.93
2022-08-03T20:24:01.640Z,50.42
2022-08-03T20:26:31.716Z,50.82
2022-08-03T20:29:08.950Z,51.23
2022-08-03T20:31:37.509Z,51.51
2022-08-03T20:34:06.198Z,51.70
2022-08-03T20:36:33.558Z,52.07
2022-08-03T20:39:01.086Z,52.09
2022-08-03T20:41:35.053Z,52.44
2022-08-03T20:44:02.293Z,52.71
2022-08-03T20:46:38.526Z,52.99
2022-08-03T20:49:14.031Z,53.12
2022-08-03T20:51:49.820Z,53.29
2022-08-03T20:54:30.951Z,53.54
2022-08-03T20:57:04.145Z,53.62
2022-08-03T20:59:50.154Z,54.03
2022-08-03T21:02:30.340Z,54.05
2022-08-03T21:05:02.845Z,54.25
2022-08-03T21:08:04.354Z,54.46
2022-08-03T21:10:33.018Z,54.48
2022-08-03T21:12:56.698Z,32.22
2022-08-03T21:16:12.868Z,54.75
2022-08-03T21:18:50.094Z,55.01
2022-08-03T21:21:20.148Z,55.23
2022-08-03T21:23:52.619Z,55.12
2022-08-03T21:26:22.438Z,55.14
2022-08-03T21:28:51.217Z,55.20
2022-08-03T21:31:24.336Z,55.38
2022-08-03T21:34:04.862Z,55.39
2022-08-03T21:36:34.287Z,55.51
2022-08-03T21:39:02.926Z,55.65
2022-08-03T21:41:31.652Z,55.74
2022-08-03T21:44:00.274Z,55.94
2022-08-03T21:46:29.951Z,55.85
2022-08-03T21:50:04.558Z,55.76
2022-08-03T21:51:50.695Z,55.71
2022-08-03T21:54:20.805Z,55.46
2022-08-03T21:56:48.375Z,55.46
2022-08-03T21:59:20.228Z,55.42
2022-08-03T22:01:49.212Z,55.45
2022-08-03T22:04:50.756Z,55.52
2022-08-03T22:07:07.866Z,55.51
2022-08-03T22:09:35.939Z,55.44
2022-08-03T22:12:03.742Z,55.47
2022-08-03T22:14:33.182Z,55.35
2022-08-03T22:17:01.287Z,55.39
2022-08-03T22:19:33.333Z,55.28
2022-08-03T22:22:00.743Z,55.31
2022-08-03T22:24:29.068Z,55.28
2022-08-03T22:27:15.018Z,55.36
2022-08-03T22:29:42.679Z,55.30
2022-08-03T22:32:10.805Z,55.43
2022-08-03T22:34:38.829Z,55.43
2022-08-03T22:37:06.980Z,55.38
2022-08-03T22:39:35.515Z,55.17
2022-08-03T22:42:05.543Z,55.19
2022-08-03T22:44:32.908Z,55.14
2022-08-03T22:47:00.093Z,55.13
2022-08-03T22:49:28.602Z,55.05
2022-08-03T22:51:56.470Z,55.04
2022-08-03T22:54:23.668Z,54.87
2022-08-03T22:56:51.452Z,54.87
2022-08-03T22:59:40.283Z,54.92
2022-08-03T23:02:21.141Z,54.92
2022-08-03T23:04:54.597Z,54.87
2022-08-03T23:07:45.225Z,54.83
2022-08-03T23:10:13.993Z,54.83
2022-08-03T23:12:42.461Z,54.77
2022-08-03T23:15:13.361Z,54.80
2022-08-03T23:17:58.129Z,54.77
2022-08-03T23:20:27.035Z,54.77
2022-08-03T23:22:57.832Z,54.81
2022-08-03T23:25:25.469Z,54.81
2022-08-03T23:28:04.618Z,54.66
2022-08-03T23:30:34.745Z,54.87
2022-08-03T23:33:02.514Z,54.85
2022-08-03T23:36:28.256Z,54.79
2022-08-03T23:38:36.423Z,54.76
2022-08-03T23:41:04.751Z,54.67
2022-08-03T23:43:52.374Z,54.78
2022-08-03T23:46:24.538Z,54.73
2022-08-03T23:48:51.536Z,54.78
2022-08-03T23:51:57.551Z,54.63
2022-08-03T23:54:35.150Z,54.52
2022-08-03T23:57:38.119Z,54.61
